Time;durP1;ratioP1;P1;durP2;ratioP2;P2;SDS_P1;SDS_P2;PMS_P1;PMS_P2;Temp;Humidity;BMP_temperature;BMP_pressure;BME280_temperature;BME280_humidity;BME280_pressure;Samples;Min_cycle;Max_cycle;Signal;HPM_P1;HPM_P2
2021/08/15 00:00:34;;;;;;;10.10;8.80;;;23.60;99.90;;;;;;4996546;28;20682;-75
2021/08/15 00:03:00;;;;;;;10.90;8.97;;;23.50;99.90;;;;;;4996359;28;20286;-75
2021/08/15 00:05:26;;;;;;;10.57;9.20;;;23.40;99.90;;;;;;4994887;28;20176;-74
2021/08/15 00:07:53;;;;;;;10.40;8.60;;;23.40;99.90;;;;;;4994064;28;20199;-76
2021/08/15 00:10:19;;;;;;;11.67;8.67;;;23.40;99.90;;;;;;4993903;28;20592;-75
2021/08/15 00:12:45;;;;;;;15.50;9.37;;;23.30;99.90;;;;;;4995017;28;20570;-75
2021/08/15 00:15:12;;;;;;;11.97;8.80;;;23.30;99.90;;;;;;4992320;28;20192;-74
2021/08/15 00:17:39;;;;;;;11.20;8.47;;;23.20;99.90;;;;;;4979644;28;20680;-75
2021/08/15 00:20:05;;;;;;;13.20;8.47;;;23.20;99.90;;;;;;4989796;28;20172;-75
2021/08/15 00:22:31;;;;;;;11.77;8.87;;;23.10;99.90;;;;;;4993966;28;20203;-75
2021/08/15 00:24:57;;;;;;;9.90;9.00;;;23.20;99.90;;;;;;4993552;28;20187;-76
2021/08/15 00:27:22;;;;;;;9.13;8.27;;;23.20;99.90;;;;;;4993503;28;20192;-75
2021/08/15 00:29:48;;;;;;;9.63;8.63;;;23.20;99.90;;;;;;4993431;28;20183;-75
2021/08/15 00:32:13;;;;;;;12.40;8.57;;;23.10;99.90;;;;;;4993378;28;20179;-76
2021/08/15 00:34:39;;;;;;;14.20;9.00;;;23.00;99.90;;;;;;4993444;28;20576;-76
2021/08/15 00:37:05;;;;;;;10.60;9.07;;;22.90;99.90;;;;;;4993258;28;20577;-75
2021/08/15 00:39:31;;;;;;;11.53;8.97;;;22.90;99.90;;;;;;4992909;28;20805;-75
2021/08/15 00:41:57;;;;;;;12.33;9.23;;;22.90;99.90;;;;;;4995442;28;20266;-75
2021/08/15 00:44:23;;;;;;;10.10;8.77;;;22.90;99.90;;;;;;4994274;28;20202;-75
2021/08/15 00:46:49;;;;;;;10.57;9.20;;;22.90;99.90;;;;;;4995672;28;20576;-75
2021/08/15 00:49:16;;;;;;;11.63;9.33;;;22.90;99.90;;;;;;4995414;28;20234;-75
2021/08/15 00:51:41;;;;;;;9.73;8.77;;;22.90;99.90;;;;;;4994192;28;20271;-75
2021/08/15 00:54:07;;;;;;;9.73;8.73;;;23.00;99.90;;;;;;4994396;28;20266;-75
2021/08/15 00:56:33;;;;;;;12.63;8.43;;;23.00;99.90;;;;;;4994199;28;20186;-75
2021/08/15 00:59:06;;;;;;;10.17;8.70;;;23.00;99.90;;;;;;4994005;28;20195;-75
2021/08/15 01:01:33;;;;;;;14.40;9.70;;;23.00;99.90;;;;;;4993247;28;20222;-75
2021/08/15 01:04:03;;;;;;;12.93;8.73;;;22.90;99.90;;;;;;4995357;28;20187;-75
2021/08/15 01:06:33;;;;;;;11.20;9.07;;;22.90;99.90;;;;;;4993009;28;20180;-74
2021/08/15 01:09:03;;;;;;;10.73;8.93;;;23.00;99.90;;;;;;4993218;28;20200;-75
2021/08/15 01:11:31;;;;;;;17.17;8.93;;;22.90;99.90;;;;;;4994978;28;20183;-75
2021/08/15 01:13:56;;;;;;;14.57;8.77;;;22.80;99.90;;;;;;4996877;28;20262;-74
2021/08/15 01:16:22;;;;;;;11.37;9.10;;;22.80;99.90;;;;;;4995098;28;20267;-75
2021/08/15 01:18:47;;;;;;;9.40;8.57;;;22.70;99.90;;;;;;4993707;28;20210;-75
2021/08/15 01:21:14;;;;;;;10.60;9.27;;;22.70;99.90;;;;;;4994966;28;20605;-75
2021/08/15 01:23:42;;;;;;;8.87;8.17;;;22.70;99.90;;;;;;4995035;28;20598;-75
2021/08/15 01:26:19;;;;;;;10.03;9.00;;;22.60;99.90;;;;;;4994791;28;20267;-73
2021/08/15 01:28:45;;;;;;;10.17;9.00;;;22.60;99.90;;;;;;4994864;28;20238;-75
2021/08/15 01:31:12;;;;;;;10.50;9.43;;;22.60;99.90;;;;;;4994833;28;20246;-75
2021/08/15 01:33:41;;;;;;;12.90;9.93;;;;;;;;;;4994802;28;20176;-75
2021/08/15 01:36:16;;;;;;;10.57;8.27;;;22.50;99.90;;;;;;4994988;28;20207;-75
2021/08/15 01:38:43;;;;;;;11.37;8.87;;;22.60;99.90;;;;;;4994710;28;20191;-75
2021/08/15 01:41:10;;;;;;;9.80;8.83;;;22.50;99.90;;;;;;4994580;28;20266;-76
2021/08/15 01:43:59;;;;;;;10.17;9.13;;;22.50;99.90;;;;;;4994670;28;20208;-75
2021/08/15 01:46:30;;;;;;;13.27;9.73;;;22.50;99.90;;;;;;4994203;28;20179;-75
2021/08/15 01:48:56;;;;;;;10.70;8.90;;;22.50;99.90;;;;;;4994305;28;20211;-75
2021/08/15 01:51:22;;;;;;;11.87;9.53;;;22.50;99.90;;;;;;4994395;28;20195;-75
2021/08/15 01:53:50;;;;;;;10.43;9.50;;;22.50;99.90;;;;;;4994497;28;20180;-75
2021/08/15 01:56:17;;;;;;;11.07;9.93;;;22.50;99.90;;;;;;4993188;28;20200;-75
2021/08/15 01:58:42;;;;;;;11.27;10.07;;;22.50;99.90;;;;;;4994238;28;20756;-75
2021/08/15 02:01:08;;;;;;;10.77;9.33;;;22.50;99.90;;;;;;4987344;28;20188;-75
2021/08/15 02:03:37;;;;;;;10.33;9.33;;;22.50;99.90;;;;;;4991118;28;20198;-75
2021/08/15 02:06:04;;;;;;;10.70;9.60;;;22.50;99.90;;;;;;4981817;28;20228;-75
2021/08/15 02:08:29;;;;;;;10.90;9.87;;;22.50;99.90;;;;;;4989086;28;20692;-75
2021/08/15 02:10:55;;;;;;;10.73;9.73;;;22.40;99.90;;;;;;4992316;28;20172;-75
2021/08/15 02:13:21;;;;;;;11.83;10.00;;;22.50;99.90;;;;;;4992291;28;20180;-75
2021/08/15 02:15:46;;;;;;;10.93;9.13;;;22.50;99.90;;;;;;4990803;28;20904;-75
2021/08/15 02:18:12;;;;;;;10.47;9.33;;;22.40;99.90;;;;;;4992830;28;20239;-74
2021/08/15 02:20:38;;;;;;;9.87;8.97;;;22.40;99.90;;;;;;4991478;28;20183;-75
2021/08/15 02:23:04;;;;;;;10.23;9.10;;;22.30;99.90;;;;;;4992357;28;20206;-75
2021/08/15 02:25:30;;;;;;;10.03;9.10;;;22.20;99.90;;;;;;4993790;28;20548;-75
2021/08/15 02:27:56;;;;;;;12.97;9.33;;;22.10;99.90;;;;;;4992426;28;20187;-75
2021/08/15 02:30:24;;;;;;;9.77;8.77;;;22.10;99.90;;;;;;4993757;28;20178;-74
2021/08/15 02:32:51;;;;;;;11.70;9.57;;;22.20;99.90;;;;;;4989968;28;20226;-75
2021/08/15 02:35:17;;;;;;;10.73;9.73;;;22.20;99.90;;;;;;4991553;28;20185;-75
2021/08/15 02:37:45;;;;;;;11.77;9.90;;;22.20;99.90;;;;;;4993482;28;20215;-75
2021/08/15 02:40:14;;;;;;;13.10;9.53;;;22.20;99.90;;;;;;4993600;28;20722;-75
2021/08/15 02:42:42;;;;;;;10.43;9.53;;;22.20;99.90;;;;;;4993407;28;20671;-75
2021/08/15 02:45:10;;;;;;;10.63;9.53;;;22.20;99.90;;;;;;4993565;28;20184;-75
2021/08/15 02:47:36;;;;;;;10.27;9.37;;;22.20;99.90;;;;;;4993142;28;20530;-75
2021/08/15 02:50:02;;;;;;;10.53;9.43;;;22.20;99.90;;;;;;4993456;28;20171;-74
2021/08/15 02:52:27;;;;;;;11.27;9.63;;;22.20;99.90;;;;;;4993426;28;20223;-75
2021/08/15 02:54:53;;;;;;;10.63;9.73;;;22.20;99.90;;;;;;4993296;28;20640;-75
2021/08/15 02:57:19;;;;;;;10.83;9.80;;;22.20;99.90;;;;;;4993265;28;20667;-74
2021/08/15 02:59:47;;;;;;;10.30;8.97;;;22.20;99.90;;;;;;4991821;28;20176;-75
2021/08/15 03:02:17;;;;;;;14.23;10.27;;;22.10;99.90;;;;;;4993099;28;20753;-75
2021/08/15 03:04:45;;;;;;;10.37;9.40;;;22.20;99.90;;;;;;4993372;28;20172;-75
2021/08/15 03:07:11;;;;;;;11.30;9.70;;;22.20;99.90;;;;;;4993428;28;20246;-74
2021/08/15 03:09:37;;;;;;;9.93;8.93;;;22.20;99.90;;;;;;4993040;28;20612;-75
2021/08/15 03:12:03;;;;;;;10.90;9.50;;;22.10;99.90;;;;;;4990822;28;20226;-75
2021/08/15 03:14:29;;;;;;;11.63;9.93;;;22.10;99.90;;;;;;4993014;28;20218;-75
2021/08/15 03:16:54;;;;;;;10.00;8.90;;;22.10;99.90;;;;;;4992381;28;20613;-75
2021/08/15 03:19:20;;;;;;;10.20;8.97;;;22.10;99.90;;;;;;4992858;28;20199;-75
2021/08/15 03:21:46;;;;;;;10.73;9.63;;;22.10;99.90;;;;;;4992893;28;20254;-75
2021/08/15 03:24:12;;;;;;;10.60;9.50;;;22.10;99.90;;;;;;4992867;28;20171;-76
2021/08/15 03:26:40;;;;;;;10.77;9.70;;;22.00;99.90;;;;;;4992931;28;20556;-75
2021/08/15 03:29:06;;;;;;;10.67;9.57;;;22.00;99.90;;;;;;4992744;28;20196;-75
2021/08/15 03:31:32;;;;;;;10.33;9.13;;;22.00;99.90;;;;;;4992896;28;20703;-75
2021/08/15 03:33:57;;;;;;;10.57;9.50;;;22.00;99.90;;;;;;4992943;28;20210;-75
2021/08/15 03:36:23;;;;;;;9.93;9.03;;;22.00;99.90;;;;;;4991477;28;20184;-75
2021/08/15 03:38:49;;;;;;;12.40;9.77;;;22.00;99.90;;;;;;4983796;28;20215;-76
2021/08/15 03:41:14;;;;;;;10.67;9.33;;;21.90;99.90;;;;;;4974193;28;20259;-75
2021/08/15 03:43:40;;;;;;;10.37;9.37;;;21.90;99.90;;;;;;4971805;28;20551;-75
2021/08/15 03:46:05;;;;;;;12.17;10.33;;;21.90;99.90;;;;;;4984512;28;20190;-75
2021/08/15 03:48:31;;;;;;;9.80;9.00;;;21.80;99.90;;;;;;4972636;28;20208;-75
2021/08/15 03:50:57;;;;;;;10.63;9.27;;;21.80;99.90;;;;;;4982591;28;20184;-74
2021/08/15 03:53:22;;;;;;;10.27;9.27;;;21.80;99.90;;;;;;4973120;28;20374;-74
2021/08/15 03:55:48;;;;;;;11.67;9.67;;;21.80;99.90;;;;;;4973266;28;20545;-75
2021/08/15 03:58:14;;;;;;;11.67;9.90;;;21.80;99.90;;;;;;4979145;28;20203;-75
2021/08/15 04:00:43;;;;;;;11.43;10.33;;;21.80;99.90;;;;;;4989636;28;21935;-73
2021/08/15 04:03:10;;;;;;;10.50;9.27;;;21.80;99.90;;;;;;4985748;28;20576;-75
2021/08/15 04:05:36;;;;;;;10.80;9.13;;;21.70;99.90;;;;;;4990848;28;20575;-75
2021/08/15 04:08:02;;;;;;;10.67;9.80;;;21.70;99.90;;;;;;4989878;28;20274;-75
2021/08/15 04:10:28;;;;;;;10.90;9.50;;;21.70;99.90;;;;;;4988919;28;20194;-75
2021/08/15 04:12:53;;;;;;;11.27;10.13;;;21.60;99.90;;;;;;4989372;28;20645;-75
2021/08/15 04:15:19;;;;;;;10.83;9.93;;;21.60;99.90;;;;;;4990102;28;20600;-75
2021/08/15 04:17:45;;;;;;;10.43;9.53;;;21.60;99.90;;;;;;4990666;28;20200;-74
2021/08/15 04:20:11;;;;;;;11.13;10.07;;;21.60;99.90;;;;;;4991235;28;20176;-75
2021/08/15 04:22:37;;;;;;;10.63;9.73;;;21.60;99.90;;;;;;4990961;28;20685;-75
2021/08/15 04:25:03;;;;;;;10.33;9.33;;;21.60;99.90;;;;;;4989953;28;20172;-75
2021/08/15 04:27:28;;;;;;;10.53;9.53;;;21.60;99.90;;;;;;4990012;28;20539;-75
2021/08/15 04:29:54;;;;;;;10.80;9.70;;;21.60;99.90;;;;;;4993390;28;20258;-75
2021/08/15 04:32:19;;;;;;;11.20;10.07;;;21.50;99.90;;;;;;4993387;28;20176;-75
2021/08/15 04:34:45;;;;;;;11.17;10.07;;;21.60;99.90;;;;;;4994713;28;20176;-75
2021/08/15 04:37:11;;;;;;;10.00;9.10;;;21.60;99.90;;;;;;4994709;28;20654;-75
2021/08/15 04:39:37;;;;;;;10.37;9.23;;;21.60;99.90;;;;;;4994534;28;20226;-75
2021/08/15 04:42:03;;;;;;;11.17;10.07;;;21.60;99.90;;;;;;4994132;28;20203;-75
2021/08/15 04:44:29;;;;;;;11.80;10.57;;;21.50;99.90;;;;;;4991884;28;20184;-75
2021/08/15 04:46:54;;;;;;;11.07;9.97;;;21.40;99.90;;;;;;4993206;28;20172;-76
2021/08/15 04:49:20;;;;;;;10.87;9.60;;;21.50;99.90;;;;;;4992857;28;20211;-75
2021/08/15 04:51:46;;;;;;;11.17;9.90;;;21.40;99.90;;;;;;4993551;28;20279;-74
2021/08/15 04:54:12;;;;;;;11.97;10.73;;;21.30;99.90;;;;;;4995571;28;20626;-75
2021/08/15 04:56:38;;;;;;;11.93;10.57;;;21.30;99.90;;;;;;4995544;28;20258;-75
2021/08/15 04:59:03;;;;;;;14.43;10.30;;;21.40;99.90;;;;;;4995449;28;20283;-75
2021/08/15 05:01:29;;;;;;;11.40;10.20;;;21.40;99.90;;;;;;4995267;28;20199;-75
2021/08/15 05:03:55;;;;;;;11.20;10.10;;;21.40;99.90;;;;;;4995257;28;20175;-75
2021/08/15 05:06:20;;;;;;;11.23;10.00;;;21.40;99.90;;;;;;4995291;28;20685;-75
2021/08/15 05:08:46;;;;;;;10.73;9.73;;;21.40;99.90;;;;;;4995277;28;20202;-75
2021/08/15 05:11:11;;;;;;;11.77;10.60;;;21.40;99.90;;;;;;4994888;28;20551;-74
2021/08/15 05:13:37;;;;;;;12.47;9.87;;;21.40;99.90;;;;;;4994048;28;20211;-75
2021/08/15 05:16:03;;;;;;;12.53;10.47;;;21.50;99.90;;;;;;4992606;28;20179;-76
2021/08/15 05:18:29;;;;;;;12.07;10.07;;;21.50;99.90;;;;;;4993654;28;20277;-74
2021/08/15 05:20:54;;;;;;;11.27;9.87;;;21.50;99.90;;;;;;4993748;28;20668;-75
2021/08/15 05:23:20;;;;;;;11.63;9.77;;;21.50;99.90;;;;;;4995056;28;20571;-74
2021/08/15 05:25:46;;;;;;;11.53;10.53;;;21.50;99.90;;;;;;4993519;28;20187;-75
2021/08/15 05:28:13;;;;;;;11.97;10.63;;;21.50;99.90;;;;;;4994789;28;20374;-75
2021/08/15 05:30:38;;;;;;;12.37;11.10;;;21.60;99.90;;;;;;4993486;28;20184;-75
2021/08/15 05:33:04;;;;;;;11.30;10.27;;;21.60;99.90;;;;;;4993571;28;20191;-75
2021/08/15 05:35:30;;;;;;;11.57;10.47;;;21.60;99.90;;;;;;4992547;28;20180;-75
2021/08/15 05:37:56;;;;;;;13.70;10.20;;;21.60;99.90;;;;;;4991185;28;20242;-75
2021/08/15 05:40:21;;;;;;;10.60;9.57;;;21.70;99.90;;;;;;4993000;28;20179;-74
2021/08/15 05:42:47;;;;;;;10.93;9.87;;;21.70;99.90;;;;;;4993931;28;20237;-75
2021/08/15 05:45:13;;;;;;;11.23;10.20;;;21.70;99.90;;;;;;4992636;28;20180;-74
2021/08/15 05:47:38;;;;;;;10.37;9.43;;;21.70;99.90;;;;;;4992951;28;20738;-75
2021/08/15 05:50:05;;;;;;;10.83;9.83;;;21.80;99.90;;;;;;4993227;28;20189;-75
2021/08/15 05:52:31;;;;;;;10.60;9.80;;;21.80;99.90;;;;;;4984406;28;20561;-74
2021/08/15 05:54:58;;;;;;;11.17;9.30;;;21.80;99.90;;;;;;4980138;28;20195;-75
2021/08/15 05:57:23;;;;;;;11.67;9.93;;;21.90;99.90;;;;;;4990632;28;20655;-75
2021/08/15 05:59:49;;;;;;;10.17;9.30;;;21.90;99.90;;;;;;4990574;28;20183;-75
2021/08/15 06:02:15;;;;;;;10.57;9.73;;;22.00;99.90;;;;;;4992380;28;20203;-75
2021/08/15 06:04:40;;;;;;;10.97;9.87;;;22.00;99.90;;;;;;4983568;28;20662;-75
2021/08/15 06:07:06;;;;;;;10.63;9.70;;;22.00;99.90;;;;;;4993541;28;20734;-75
2021/08/15 06:09:31;;;;;;;11.10;10.00;;;22.00;99.90;;;;;;4992726;28;20796;-75
2021/08/15 06:12:03;;;;;;;12.87;11.33;;;22.00;99.90;;;;;;4992972;28;20187;-75
2021/08/15 06:14:28;;;;;;;11.50;10.23;;;22.10;99.90;;;;;;4993828;28;20198;-75
2021/08/15 06:16:54;;;;;;;11.27;10.27;;;22.10;99.90;;;;;;4991365;28;20183;-74
2021/08/15 06:19:19;;;;;;;10.00;9.10;;;22.20;99.90;;;;;;4992927;28;20278;-75
2021/08/15 06:21:45;;;;;;;12.03;9.97;;;22.30;99.90;;;;;;4992172;28;20254;-75
2021/08/15 06:24:11;;;;;;;10.30;9.23;;;22.30;99.90;;;;;;4993839;28;20187;-75
2021/08/15 06:26:36;;;;;;;11.83;10.67;;;22.40;99.90;;;;;;4992677;28;20184;-75
2021/08/15 06:29:02;;;;;;;10.33;9.23;;;22.50;99.90;;;;;;4993070;28;20286;-75
2021/08/15 06:31:28;;;;;;;11.13;10.13;;;22.50;99.90;;;;;;4993730;28;20639;-75
2021/08/15 06:33:53;;;;;;;10.70;9.77;;;22.50;99.90;;;;;;4993805;28;20188;-74
2021/08/15 06:36:19;;;;;;;11.70;10.57;;;22.50;99.90;;;;;;4992630;28;20191;-75
2021/08/15 06:38:45;;;;;;;10.03;9.13;;;22.60;99.90;;;;;;4993422;28;20291;-75
2021/08/15 06:41:11;;;;;;;10.23;9.40;;;22.60;99.90;;;;;;4993467;28;20176;-75
2021/08/15 06:43:37;;;;;;;9.60;8.70;;;22.70;99.90;;;;;;4992327;28;20954;-75
2021/08/15 06:46:03;;;;;;;9.97;9.10;;;22.70;99.90;;;;;;4993086;28;20211;-75
2021/08/15 06:48:29;;;;;;;10.87;9.90;;;22.80;99.90;;;;;;4993254;28;20220;-75
2021/08/15 06:50:58;;;;;;;10.37;9.47;;;22.90;99.90;;;;;;4993118;28;20635;-75
2021/08/15 06:53:24;;;;;;;10.70;9.70;;;22.90;99.90;;;;;;4987507;28;20228;-75
2021/08/15 06:55:50;;;;;;;10.33;9.20;;;23.00;99.90;;;;;;4999890;28;20187;-74
2021/08/15 06:58:17;;;;;;;10.47;9.47;;;23.00;99.90;;;;;;4993132;28;20212;-76
2021/08/15 07:00:43;;;;;;;10.03;9.13;;;23.00;99.90;;;;;;4993288;28;20230;-75
2021/08/15 07:03:09;;;;;;;9.47;8.53;;;23.00;99.90;;;;;;4993013;28;20211;-75
2021/08/15 07:05:34;;;;;;;10.80;9.70;;;23.10;99.90;;;;;;4993157;28;20183;-75
2021/08/15 07:08:00;;;;;;;10.00;9.27;;;23.20;99.90;;;;;;4993109;28;20670;-75
2021/08/15 07:10:27;;;;;;;12.43;9.47;;;23.20;99.90;;;;;;4992072;28;20631;-76
2021/08/15 07:12:55;;;;;;;13.33;8.73;;;23.20;99.90;;;;;;4990870;28;20184;-75
2021/08/15 07:15:21;;;;;;;11.07;9.33;;;23.20;99.90;;;;;;4991876;28;20191;-75
2021/08/15 07:17:47;;;;;;;11.00;9.00;;;23.20;99.90;;;;;;4991220;28;20775;-75
2021/08/15 07:20:13;;;;;;;11.03;9.27;;;23.30;99.90;;;;;;4991874;28;20270;-76
2021/08/15 07:22:39;;;;;;;11.10;10.03;;;23.30;99.90;;;;;;4992093;28;20215;-75
2021/08/15 07:25:06;;;;;;;10.20;9.20;;;23.30;99.90;;;;;;4991078;28;20266;-76
2021/08/15 07:27:33;;;;;;;10.10;9.10;;;23.40;99.90;;;;;;4992415;28;20187;-75
2021/08/15 07:29:59;;;;;;;10.50;9.60;;;23.40;99.90;;;;;;4991586;28;20227;-76
2021/08/15 07:32:24;;;;;;;10.57;9.23;;;23.40;99.90;;;;;;4991520;28;20238;-75
2021/08/15 07:34:50;;;;;;;11.53;9.97;;;23.50;99.90;;;;;;4978725;28;20192;-75
2021/08/15 07:37:16;;;;;;;9.87;8.90;;;23.60;99.90;;;;;;4988174;28;20180;-75
2021/08/15 07:39:42;;;;;;;11.57;9.47;;;23.60;99.90;;;;;;4989247;28;20199;-76
2021/08/15 07:42:08;;;;;;;9.97;9.17;;;23.70;99.90;;;;;;4991601;28;20203;-76
2021/08/15 07:44:34;;;;;;;11.03;9.20;;;23.70;99.90;;;;;;4985045;28;20627;-76
2021/08/15 07:47:00;;;;;;;10.80;9.70;;;23.70;99.90;;;;;;4981805;28;20187;-76
2021/08/15 07:49:25;;;;;;;11.07;9.90;;;23.80;99.90;;;;;;4986887;28;20211;-76
2021/08/15 07:51:51;;;;;;;10.80;9.60;;;23.90;99.90;;;;;;4987870;28;20261;-76
2021/08/15 07:54:17;;;;;;;11.57;9.73;;;23.90;99.90;;;;;;4988410;28;20215;-76
2021/08/15 07:56:42;;;;;;;10.70;9.70;;;23.90;99.90;;;;;;4983808;28;20210;-75
2021/08/15 07:59:10;;;;;;;12.17;9.67;;;24.00;99.90;;;;;;4983661;28;20222;-76
2021/08/15 08:01:36;;;;;;;11.83;10.17;;;24.00;99.90;;;;;;4988287;28;20203;-76
2021/08/15 08:04:02;;;;;;;13.50;10.37;;;24.10;99.90;;;;;;4989442;28;20188;-76
2021/08/15 08:06:27;;;;;;;11.13;10.03;;;24.20;99.90;;;;;;4989850;28;20179;-76
2021/08/15 08:08:53;;;;;;;11.00;9.83;;;24.30;99.90;;;;;;4988607;28;20241;-76
2021/08/15 08:11:19;;;;;;;12.10;9.80;;;24.30;99.90;;;;;;4987091;28;20271;-76
2021/08/15 08:13:47;;;;;;;10.93;9.63;;;24.30;99.90;;;;;;4989649;28;20200;-76
2021/08/15 08:16:13;;;;;;;15.23;9.33;;;24.40;99.90;;;;;;4982491;28;20195;-76
2021/08/15 08:18:39;;;;;;;10.77;9.73;;;24.40;99.90;;;;;;4986610;28;20212;-75
2021/08/15 08:21:05;;;;;;;10.77;9.53;;;24.50;99.90;;;;;;4987373;28;20187;-75
2021/08/15 08:23:30;;;;;;;11.17;10.00;;;24.50;99.90;;;;;;4989849;28;20586;-76
2021/08/15 08:25:57;;;;;;;11.23;10.07;;;24.60;99.90;;;;;;4994044;28;20190;-75
2021/08/15 08:28:23;;;;;;;12.53;10.63;;;24.70;99.90;;;;;;4994229;28;20283;-75
2021/08/15 08:30:49;;;;;;;11.97;10.40;;;24.80;99.90;;;;;;4993705;28;20627;-75
2021/08/15 08:33:15;;;;;;;11.17;10.07;;;24.90;99.90;;;;;;4993531;28;20201;-76
2021/08/15 08:35:41;;;;;;;11.13;10.10;;;24.90;99.90;;;;;;4994481;28;20635;-76
2021/08/15 08:38:07;;;;;;;12.17;10.83;;;25.00;99.90;;;;;;4993139;28;20215;-76
2021/08/15 08:40:33;;;;;;;11.10;10.00;;;25.10;99.90;;;;;;4993027;28;20183;-76
2021/08/15 08:43:00;;;;;;;12.70;10.20;;;25.20;99.90;;;;;;4992889;28;20298;-76
2021/08/15 08:45:27;;;;;;;11.70;10.07;;;25.20;99.90;;;;;;4995047;28;20176;-76
2021/08/15 08:47:54;;;;;;;11.93;9.70;;;25.30;99.90;;;;;;4995484;28;20287;-76
2021/08/15 08:50:20;;;;;;;10.93;9.90;;;25.30;99.90;;;;;;4995670;28;20671;-76
2021/08/15 08:52:47;;;;;;;10.93;9.87;;;25.30;99.90;;;;;;4995366;28;20199;-76
2021/08/15 08:55:14;;;;;;;11.10;9.90;;;25.40;99.90;;;;;;4993978;28;20250;-76
2021/08/15 08:57:41;;;;;;;15.20;10.93;;;25.40;99.90;;;;;;4995387;28;20250;-76
2021/08/15 09:00:07;;;;;;;11.30;10.10;;;25.40;99.90;;;;;;4993672;28;20667;-76
2021/08/15 09:02:37;;;;;;;12.00;10.60;;;25.40;99.90;;;;;;4993907;28;20235;-76
2021/08/15 09:05:04;;;;;;;14.57;10.30;;;25.50;99.90;;;;;;4994143;28;20207;-76
2021/08/15 09:07:34;;;;;;;15.33;11.07;;;25.60;99.90;;;;;;4994087;28;20293;-76
2021/08/15 09:10:01;;;;;;;13.30;10.00;;;25.60;99.90;;;;;;4993953;28;20191;-76
2021/08/15 09:12:37;;;;;;;12.37;10.90;;;25.80;99.90;;;;;;4993869;28;20207;-76
2021/08/15 09:15:22;;;;;;;11.50;10.13;;;25.90;99.90;;;;;;4991714;28;20249;-75
2021/08/15 09:17:49;;;;;;;15.57;11.03;;;26.00;99.90;;;;;;4993787;28;20575;-76
2021/08/15 09:20:25;;;;;;;13.43;10.33;;;26.00;99.90;;;;;;4992250;28;20288;-76
2021/08/15 09:22:51;;;;;;;12.67;11.13;;;26.00;99.90;;;;;;4993617;28;20573;-76
2021/08/15 09:25:22;;;;;;;12.17;9.90;;;26.10;99.90;;;;;;4993328;28;20184;-74
2021/08/15 09:27:55;;;;;;;12.70;11.40;;;26.20;99.90;;;;;;4993113;28;20203;-76
2021/08/15 09:30:22;;;;;;;11.47;10.47;;;26.20;99.90;;;;;;4993241;28;20188;-74
2021/08/15 09:32:52;;;;;;;11.80;10.60;;;26.20;99.90;;;;;;4991609;28;20187;-77
2021/08/15 09:35:20;;;;;;;16.80;10.23;;;26.40;99.90;;;;;;4991511;28;20191;-76
2021/08/15 09:37:46;;;;;;;13.57;10.50;;;26.40;99.90;;;;;;4991461;28;20199;-75
2021/08/15 09:40:30;;;;;;;11.60;10.40;;;26.40;99.90;;;;;;4994280;28;20825;-73
2021/08/15 09:42:59;;;;;;;12.70;10.60;;;26.50;99.90;;;;;;4992766;28;20211;-76
2021/08/15 09:45:32;;;;;;;11.63;9.97;;;26.60;99.90;;;;;;4992304;28;20192;-74
2021/08/15 09:48:21;;;;;;;14.10;9.97;;;26.70;99.90;;;;;;4993852;28;20246;-76
2021/08/15 09:51:11;;;;;;;11.97;10.80;;;26.90;99.90;;;;;;4992644;28;20184;-76
2021/08/15 09:53:43;;;;;;;12.63;9.53;;;27.00;99.90;;;;;;4993085;28;20203;-76
2021/08/15 09:56:09;;;;;;;11.20;9.87;;;27.10;99.90;;;;;;4994910;28;20567;-83
2021/08/15 09:58:35;;;;;;;13.10;9.70;;;27.20;99.90;;;;;;4994705;28;20206;-82
2021/08/15 10:01:06;;;;;;;11.30;10.17;;;27.30;99.90;;;;;;4994038;28;20638;-82
2021/08/15 10:03:35;;;;;;;14.20;9.77;;;27.50;99.90;;;;;;4993782;28;20635;-83
2021/08/15 10:06:01;;;;;;;11.23;8.63;;;27.50;99.90;;;;;;4992997;28;20176;-83
2021/08/15 10:08:28;;;;;;;11.53;9.70;;;;;;;;;;4992808;28;20199;-83
2021/08/15 10:10:54;;;;;;;11.60;9.10;;;27.50;99.90;;;;;;4994741;28;20179;-82
2021/08/15 10:13:20;;;;;;;10.90;8.37;;;27.50;99.90;;;;;;4994837;28;20176;-82
2021/08/15 10:16:00;;;;;;;12.57;9.53;;;27.60;99.90;;;;;;4993604;28;20247;-82
2021/08/15 10:18:27;;;;;;;10.33;9.33;;;27.70;99.90;;;;;;4994885;28;20203;-83
2021/08/15 10:21:08;;;;;;;18.27;9.00;;;27.80;99.90;;;;;;4993354;28;20176;-82
2021/08/15 10:23:39;;;;;;;11.33;8.67;;;27.80;99.90;;;;;;4994767;28;20199;-82
2021/08/15 10:26:25;;;;;;;9.40;8.47;;;27.90;99.90;;;;;;4994000;28;20191;-83
2021/08/15 10:28:52;;;;;;;15.13;9.27;;;27.90;99.90;;;;;;4994941;28;20607;-82
2021/08/15 10:31:18;;;;;;;14.07;9.20;;;27.90;99.90;;;;;;4995416;28;20549;-83
2021/08/15 10:33:57;;;;;;;11.97;8.63;;;28.00;99.90;;;;;;4995877;28;20176;-83
2021/08/15 10:36:28;;;;;;;12.33;8.83;;;28.00;99.90;;;;;;4995119;28;20176;-83
2021/08/15 10:38:56;;;;;;;10.03;8.27;;;28.00;99.90;;;;;;4995818;28;20203;-83
2021/08/15 10:41:47;;;;;;;9.73;8.90;;;28.00;99.90;;;;;;4996434;28;20179;-81
2021/08/15 10:44:14;;;;;;;13.17;8.70;;;28.10;99.90;;;;;;4994864;28;20255;-81
2021/08/15 10:47:11;;;;;;;13.60;8.00;;;28.20;99.90;;;;;;4993959;28;20184;-80
2021/08/15 10:49:54;;;;;;;9.60;6.97;;;28.30;99.90;;;;;;4994664;28;20208;-84
2021/08/15 10:52:36;;;;;;;13.70;7.30;;;28.40;99.90;;;;;;4993131;28;20180;-82
2021/08/15 10:55:14;;;;;;;10.17;7.70;;;28.50;99.90;;;;;;4993561;28;20187;-83
2021/08/15 10:57:41;;;;;;;11.67;7.97;;;28.50;99.90;;;;;;4994823;28;20199;-84
2021/08/15 11:00:29;;;;;;;12.93;7.90;;;28.60;99.90;;;;;;4991643;28;20202;-85
2021/08/15 11:03:18;;;;;;;12.00;8.00;;;28.90;99.90;;;;;;4991002;28;20219;-84
2021/08/15 11:05:44;;;;;;;11.83;7.00;;;29.20;99.90;;;;;;4985338;28;20188;-84
2021/08/15 11:08:31;;;;;;;9.90;7.90;;;29.30;99.90;;;;;;4991368;28;20216;-84
2021/08/15 11:11:05;;;;;;;13.73;8.00;;;29.40;99.90;;;;;;4983932;28;20641;-84
2021/08/15 11:13:33;;;;;;;12.10;7.73;;;29.50;99.90;;;;;;4993100;28;20283;-83
2021/08/15 11:16:27;;;;;;;11.50;7.87;;;29.40;99.90;;;;;;4990450;28;20203;-83
2021/08/15 11:19:08;;;;;;;10.23;7.73;;;29.30;99.90;;;;;;4989716;28;20626;-84
2021/08/15 11:22:10;;;;;;;13.80;7.80;;;29.30;99.90;;;;;;5010225;28;20213;-83
2021/08/15 11:24:37;;;;;;;9.90;8.40;;;29.20;99.90;;;;;;4994829;28;20187;-82
2021/08/15 11:27:04;;;;;;;14.97;8.87;;;29.10;99.90;;;;;;4997072;28;20659;-83
2021/08/15 11:29:33;;;;;;;14.03;8.30;;;29.10;99.90;;;;;;5000373;28;20199;-83
2021/08/15 11:31:59;;;;;;;10.73;8.13;;;28.90;99.90;;;;;;4999137;28;20191;-83
2021/08/15 11:34:26;;;;;;;14.87;8.07;;;28.80;99.90;;;;;;4995985;28;20527;-83
2021/08/15 11:37:00;;;;;;;12.23;8.73;;;28.70;99.90;;;;;;4994883;28;20598;-83
2021/08/15 11:39:38;;;;;;;10.10;8.80;;;28.50;99.90;;;;;;4993816;28;20257;-83
2021/08/15 11:42:15;;;;;;;12.73;8.83;;;28.40;99.90;;;;;;4987968;28;20230;-82
2021/08/15 11:44:48;;;;;;;10.60;8.73;;;28.20;99.90;;;;;;4992008;28;20259;-82
2021/08/15 11:47:26;;;;;;;14.30;9.17;;;28.00;99.90;;;;;;4989121;28;20187;-82
2021/08/15 11:49:54;;;;;;;10.80;9.13;;;28.00;99.90;;;;;;4997144;28;20176;-84
2021/08/15 11:52:36;;;;;;;11.43;8.43;;;27.80;99.90;;;;;;4994820;28;20183;-83
2021/08/15 11:55:09;;;;;;;12.50;8.47;;;27.60;99.90;;;;;;4992867;28;20176;-81
2021/08/15 11:57:57;;;;;;;10.40;8.43;;;27.40;99.90;;;;;;5018875;23;20709;-85
2021/08/15 12:00:33;;;;;;;14.70;9.27;;;27.30;99.90;;;;;;5001120;28;20179;-84
2021/08/15 12:03:03;;;;;;;7.83;6.90;;;27.00;99.90;;;;;;5001131;28;20627;-83
2021/08/15 12:05:29;;;;;;;16.53;7.77;;;26.30;99.90;;;;;;4999383;28;20235;-82
2021/08/15 12:08:06;;;;;;;14.47;5.20;;;25.60;99.90;;;;;;4989015;28;20206;-83
2021/08/15 12:10:54;;;;;;;20.40;6.37;;;24.60;99.90;;;;;;4976186;28;20202;-83
2021/08/15 12:13:36;;;;;;;10.40;4.97;;;23.90;99.90;;;;;;4972717;28;20172;-84
2021/08/15 12:16:02;;;;;;;11.90;4.90;;;23.10;99.90;;;;;;4977959;28;20212;-84
2021/08/15 12:18:41;;;;;;;7.60;4.90;;;23.00;99.90;;;;;;4981520;28;20200;-83
2021/08/15 12:21:27;;;;;;;8.43;5.10;;;22.80;99.90;;;;;;4981572;28;20176;-83
2021/08/15 12:24:21;;;;;;;10.33;5.27;;;22.70;99.90;;;;;;4981650;28;20195;-83
2021/08/15 12:27:13;;;;;;;9.83;5.93;;;22.60;99.90;;;;;;4985943;28;20172;-82
2021/08/15 12:29:44;;;;;;;9.20;5.40;;;22.80;99.90;;;;;;4980636;28;20200;-83
2021/08/15 12:32:23;;;;;;;6.57;5.23;;;23.10;99.90;;;;;;4978940;28;20536;-83
2021/08/15 12:34:55;;;;;;;7.23;4.60;;;23.30;99.90;;;;;;4985047;28;20196;-82
2021/08/15 12:37:26;;;;;;;6.93;4.43;;;23.40;99.90;;;;;;4984667;28;20211;-83
2021/08/15 12:40:07;;;;;;;7.03;3.97;;;23.50;99.90;;;;;;4985945;28;20321;-83
2021/08/15 12:42:35;;;;;;;7.33;4.37;;;23.60;99.90;;;;;;4985352;28;20683;-83